LFBA/AGF METAR and TAF weather

Enter ICAO airport designator
Station Type Date Time Source
LFBA METAR 2022/06/28 16:00 UTC NOAA

LFBA 281600Z AUTO 36008KT 320V030 CAVOK 26/12 Q1017 NOSIG


Station Type Date Time Source
LFBA Decoded METAR 2022/06/28 16:00 UTC NOAA

Agen, France (LFBA) 44-11N 000-36E 60M
Jun 28, 2022 - 12:00 PM EDT / 2022.06.28 1600 UTC
Wind: from the N (360 degrees) at 9 MPH (8 KT) (direction variable):0
Visibility: greater than 7 mile(s):0
Temperature: 78 F (26 C)
Dew Point: 53 F (12 C)
Relative Humidity: 41%
Pressure (altimeter): 30.03 in. Hg (1017 hPa)
ob: LFBA 281600Z AUTO 36008KT 320V030 CAVOK 26/12 Q1017 NOSIG
cycle: 16

Station Type Date Time Source
LFBA TAF 2014/12/22 20:03 UTC NOAA

TAF
AMD TAF
AMD LFBA 222037Z 2220/2224 12007KT 0400 FG VV///
TEMPO 2220/2224 0100 PROB30
TEMPO 2222/2224 FZFG

Example: see airport list